sensor_id;sensor_type;location;lat;lon;timestamp;pressure;altitude;pressure_sealevel;temperature;humidity
16355;BME280;8287;51.644;8.494;2024-02-15T00:00:30;100488.22;;;14.53;100.00
16355;BME280;8287;51.644;8.494;2024-02-15T00:02:58;100497.00;;;14.53;100.00
16355;BME280;8287;51.644;8.494;2024-02-15T00:05:24;100495.91;;;14.54;100.00
16355;BME280;8287;51.644;8.494;2024-02-15T00:07:51;100500.50;;;14.45;100.00
16355;BME280;8287;51.644;8.494;2024-02-15T00:10:18;100511.63;;;14.27;100.00
16355;BME280;8287;51.644;8.494;2024-02-15T00:12:46;100498.50;;;14.42;100.00
16355;BME280;8287;51.644;8.494;2024-02-15T00:15:17;100507.44;;;14.46;100.00
16355;BME280;8287;51.644;8.494;2024-02-15T00:17:44;100504.69;;;14.55;100.00
16355;BME280;8287;51.644;8.494;2024-02-15T00:20:12;100502.72;;;14.43;100.00
16355;BME280;8287;51.644;8.494;2024-02-15T00:22:39;100509.28;;;14.46;100.00
16355;BME280;8287;51.644;8.494;2024-02-15T00:25:06;100508.19;;;14.47;100.00
16355;BME280;8287;51.644;8.494;2024-02-15T00:27:34;100509.88;;;14.51;100.00
16355;BME280;8287;51.644;8.494;2024-02-15T00:30:00;100510.53;;;14.48;100.00
16355;BME280;8287;51.644;8.494;2024-02-15T00:32:28;100508.97;;;14.47;100.00
16355;BME280;8287;51.644;8.494;2024-02-15T00:34:56;100512.50;;;14.39;100.00
16355;BME280;8287;51.644;8.494;2024-02-15T00:37:23;100509.38;;;14.37;100.00
16355;BME280;8287;51.644;8.494;2024-02-15T00:39:48;100505.47;;;14.35;100.00
16355;BME280;8287;51.644;8.494;2024-02-15T00:42:15;100515.75;;;14.45;100.00
16355;BME280;8287;51.644;8.494;2024-02-15T00:44:42;100513.91;;;14.37;100.00
16355;BME280;8287;51.644;8.494;2024-02-15T00:47:09;100516.41;;;14.42;100.00
16355;BME280;8287;51.644;8.494;2024-02-15T00:49:37;100511.16;;;14.45;100.00
16355;BME280;8287;51.644;8.494;2024-02-15T00:52:04;100510.59;;;14.40;100.00
16355;BME280;8287;51.644;8.494;2024-02-15T00:54:31;100508.72;;;14.40;100.00
16355;BME280;8287;51.644;8.494;2024-02-15T00:56:58;100509.38;;;14.37;100.00
16355;BME280;8287;51.644;8.494;2024-02-15T00:59:24;100507.28;;;14.43;100.00
16355;BME280;8287;51.644;8.494;2024-02-15T01:01:51;100511.38;;;14.40;100.00
16355;BME280;8287;51.644;8.494;2024-02-15T01:04:18;100514.88;;;14.32;100.00
16355;BME280;8287;51.644;8.494;2024-02-15T01:06:46;100514.44;;;14.30;100.00
16355;BME280;8287;51.644;8.494;2024-02-15T01:09:13;100526.38;;;14.24;100.00
16355;BME280;8287;51.644;8.494;2024-02-15T01:11:39;100524.16;;;14.26;100.00
16355;BME280;8287;51.644;8.494;2024-02-15T01:14:06;100524.06;;;14.43;100.00
16355;BME280;8287;51.644;8.494;2024-02-15T01:16:35;100517.69;;;14.36;100.00
16355;BME280;8287;51.644;8.494;2024-02-15T01:19:02;100520.03;;;14.37;100.00
16355;BME280;8287;51.644;8.494;2024-02-15T01:21:28;100522.63;;;14.46;100.00
16355;BME280;8287;51.644;8.494;2024-02-15T01:23:56;100521.72;;;14.42;100.00
16355;BME280;8287;51.644;8.494;2024-02-15T01:26:23;100525.22;;;14.34;100.00
16355;BME280;8287;51.644;8.494;2024-02-15T01:28:49;100516.00;;;14.31;100.00
16355;BME280;8287;51.644;8.494;2024-02-15T01:31:16;100526.31;;;14.33;100.00
16355;BME280;8287;51.644;8.494;2024-02-15T01:33:43;100522.69;;;14.37;100.00
16355;BME280;8287;51.644;8.494;2024-02-15T01:36:13;100522.50;;;14.42;100.00
16355;BME280;8287;51.644;8.494;2024-02-15T01:38:40;100525.16;;;14.42;100.00
16355;BME280;8287;51.644;8.494;2024-02-15T01:41:09;100510.22;;;14.29;100.00
16355;BME280;8287;51.644;8.494;2024-02-15T01:43:35;100526.38;;;14.24;100.00
16355;BME280;8287;51.644;8.494;2024-02-15T01:46:07;100526.50;;;14.28;100.00
16355;BME280;8287;51.644;8.494;2024-02-15T01:48:36;100512.59;;;14.22;100.00
16355;BME280;8287;51.644;8.494;2024-02-15T01:51:03;100516.50;;;14.25;100.00
16355;BME280;8287;51.644;8.494;2024-02-15T01:53:31;100524.50;;;14.25;100.00
16355;BME280;8287;51.644;8.494;2024-02-15T01:55:58;100529.22;;;14.19;100.00
16355;BME280;8287;51.644;8.494;2024-02-15T01:58:27;100525.72;;;14.27;100.00
16355;BME280;8287;51.644;8.494;2024-02-15T02:00:57;100523.25;;;14.22;100.00
16355;BME280;8287;51.644;8.494;2024-02-15T02:03:24;100516.88;;;14.35;100.00
16355;BME280;8287;51.644;8.494;2024-02-15T02:05:52;100519.09;;;14.33;100.00
16355;BME280;8287;51.644;8.494;2024-02-15T02:08:18;100514.44;;;14.30;100.00
16355;BME280;8287;51.644;8.494;2024-02-15T02:10:45;100513.38;;;14.23;100.00
16355;BME280;8287;51.644;8.494;2024-02-15T02:13:12;100513.13;;;14.36;100.00
16355;BME280;8287;51.644;8.494;2024-02-15T02:15:40;100520.03;;;14.37;100.00
16355;BME280;8287;51.644;8.494;2024-02-15T02:18:07;100513.38;;;14.23;100.00
16355;BME280;8287;51.644;8.494;2024-02-15T02:20:35;100508.38;;;14.21;100.00
16355;BME280;8287;51.644;8.494;2024-02-15T02:23:04;100514.44;;;14.30;100.00
16355;BME280;8287;51.644;8.494;2024-02-15T02:25:34;100519.25;;;14.37;100.00
16355;BME280;8287;51.644;8.494;2024-02-15T02:28:01;100521.94;;;14.28;100.00
16355;BME280;8287;51.644;8.494;2024-02-15T02:30:27;100522.09;;;14.32;100.00
16355;BME280;8287;51.644;8.494;2024-02-15T02:32:55;100516.81;;;14.23;100.00
16355;BME280;8287;51.644;8.494;2024-02-15T02:35:24;100512.75;;;14.26;100.00
16355;BME280;8287;51.644;8.494;2024-02-15T02:37:51;100514.47;;;14.22;100.00
16355;BME280;8287;51.644;8.494;2024-02-15T02:40:19;100512.13;;;14.20;100.00
16355;BME280;8287;51.644;8.494;2024-02-15T02:42:51;100504.66;;;14.34;100.00
16355;BME280;8287;51.644;8.494;2024-02-15T02:45:18;100511.19;;;14.25;100.00
16355;BME280;8287;51.644;8.494;2024-02-15T02:47:47;100502.84;;;14.26;100.00
16355;BME280;8287;51.644;8.494;2024-02-15T02:50:14;100508.44;;;14.33;100.00
16355;BME280;8287;51.644;8.494;2024-02-15T02:52:41;100516.00;;;14.31;100.00
16355;BME280;8287;51.644;8.494;2024-02-15T02:55:08;100508.44;;;14.33;100.00
16355;BME280;8287;51.644;8.494;2024-02-15T02:57:34;100513.31;;;14.31;100.00
16355;BME280;8287;51.644;8.494;2024-02-15T03:00:05;100513.78;;;14.33;100.00
16355;BME280;8287;51.644;8.494;2024-02-15T03:02:33;100515.75;;;14.45;100.00
16355;BME280;8287;51.644;8.494;2024-02-15T03:05:01;100500.63;;;14.49;100.00
16355;BME280;8287;51.644;8.494;2024-02-15T03:07:28;100504.09;;;14.49;100.00
16355;BME280;8287;51.644;8.494;2024-02-15T03:09:54;100500.91;;;14.35;100.00
16355;BME280;8287;51.644;8.494;2024-02-15T03:12:21;100492.59;;;14.37;100.00
16355;BME280;8287;51.644;8.494;2024-02-15T03:14:47;100490.09;;;14.52;100.00
16355;BME280;8287;51.644;8.494;2024-02-15T03:17:15;100496.41;;;14.48;100.00
16355;BME280;8287;51.644;8.494;2024-02-15T03:19:42;100487.66;;;14.47;100.00
16355;BME280;8287;51.644;8.494;2024-02-15T03:22:08;100488.69;;;14.34;100.00
16355;BME280;8287;51.644;8.494;2024-02-15T03:24:38;100501.09;;;14.30;100.00
16355;BME280;8287;51.644;8.494;2024-02-15T03:27:05;100494.53;;;14.28;100.00
16355;BME280;8287;51.644;8.494;2024-02-15T03:29:32;100490.16;;;14.23;100.00
16355;BME280;8287;51.644;8.494;2024-02-15T03:32:00;100505.31;;;14.31;100.00
16355;BME280;8287;51.644;8.494;2024-02-15T03:34:30;100495.19;;;14.45;100.00
16355;BME280;8287;51.644;8.494;2024-02-15T03:36:57;100488.81;;;14.38;100.00
16355;BME280;8287;51.644;8.494;2024-02-15T03:39:24;100491.59;;;14.41;100.00
16355;BME280;8287;51.644;8.494;2024-02-15T03:41:50;100475.53;;;14.50;100.00
16355;BME280;8287;51.644;8.494;2024-02-15T03:44:18;100479.13;;;14.54;100.00
16355;BME280;8287;51.644;8.494;2024-02-15T03:46:45;100476.59;;;14.57;100.00
16355;BME280;8287;51.644;8.494;2024-02-15T03:49:16;100480.88;;;14.50;100.00
16355;BME280;8287;51.644;8.494;2024-02-15T03:51:44;100478.28;;;14.62;100.00
16355;BME280;8287;51.644;8.494;2024-02-15T03:54:10;100481.91;;;14.57;100.00
16355;BME280;8287;51.644;8.494;2024-02-15T03:56:46;100474.63;;;14.46;100.00
16355;BME280;8287;51.644;8.494;2024-02-15T03:59:13;100476.00;;;14.52;100.00
16355;BME280;8287;51.644;8.494;2024-02-15T04:01:39;100477.75;;;14.68;100.00
16355;BME280;8287;51.644;8.494;2024-02-15T04:04:06;100473.97;;;14.69;100.00
16355;BME280;8287;51.644;8.494;2024-02-15T04:06:32;100480.22;;;14.73;100.00
16355;BME280;8287;51.644;8.494;2024-02-15T04:09:01;100484.31;;;14.71;100.00
16355;BME280;8287;51.644;8.494;2024-02-15T04:11:27;100480.75;;;14.67;100.00
16355;BME280;8287;51.644;8.494;2024-02-15T04:13:54;100482.31;;;14.68;100.00
16355;BME280;8287;51.644;8.494;2024-02-15T04:16:22;100492.13;;;14.76;100.00
16355;BME280;8287;51.644;8.494;2024-02-15T04:18:51;100489.34;;;14.72;100.00
16355;BME280;8287;51.644;8.494;2024-02-15T04:21:16;100484.75;;;14.73;100.00
16355;BME280;8287;51.644;8.494;2024-02-15T04:23:45;100476.63;;;14.69;100.00
16355;BME280;8287;51.644;8.494;2024-02-15T04:26:13;100479.88;;;14.75;100.00
16355;BME280;8287;51.644;8.494;2024-02-15T04:28:40;100480.84;;;14.70;100.00
16355;BME280;8287;51.644;8.494;2024-02-15T04:31:06;100480.66;;;14.75;100.00
16355;BME280;8287;51.644;8.494;2024-02-15T04:33:34;100484.88;;;14.76;100.00
16355;BME280;8287;51.644;8.494;2024-02-15T04:36:01;100472.81;;;14.58;100.00
16355;BME280;8287;51.644;8.494;2024-02-15T04:38:31;100480.41;;;14.68;100.00
16355;BME280;8287;51.644;8.494;2024-02-15T04:40:59;100482.19;;;14.64;100.00
16355;BME280;8287;51.644;8.494;2024-02-15T04:43:27;100479.97;;;14.66;100.00
16355;BME280;8287;51.644;8.494;2024-02-15T04:45:54;100477.75;;;14.68;100.00
16355;BME280;8287;51.644;8.494;2024-02-15T04:48:21;100474.25;;;14.56;100.00
16355;BME280;8287;51.644;8.494;2024-02-15T04:50:50;100473.19;;;14.69;100.00
16355;BME280;8287;51.644;8.494;2024-02-15T04:53:17;100466.06;;;14.61;100.00
16355;BME280;8287;51.644;8.494;2024-02-15T04:55:44;100474.38;;;14.59;100.00
16355;BME280;8287;51.644;8.494;2024-02-15T04:58:11;100470.19;;;14.70;100.00
16355;BME280;8287;51.644;8.494;2024-02-15T05:00:39;100473.25;;;14.60;100.00
16355;BME280;8287;51.644;8.494;2024-02-15T05:03:06;100477.97;;;14.63;100.00
16355;BME280;8287;51.644;8.494;2024-02-15T05:05:33;100478.66;;;14.72;100.00
16355;BME280;8287;51.644;8.494;2024-02-15T05:07:59;100478.78;;;14.76;100.00
16355;BME280;8287;51.644;8.494;2024-02-15T05:10:26;100475.41;;;14.67;100.00
16355;BME280;8287;51.644;8.494;2024-02-15T05:12:53;100469.28;;;14.66;100.00
16355;BME280;8287;51.644;8.494;2024-02-15T05:15:21;100467.88;;;14.69;100.00
16355;BME280;8287;51.644;8.494;2024-02-15T05:17:51;100467.53;;;14.70;100.00
16355;BME280;8287;51.644;8.494;2024-02-15T05:20:19;100466.44;;;14.71;100.00
16355;BME280;8287;51.644;8.494;2024-02-15T05:22:46;100474.88;;;14.73;100.00
16355;BME280;8287;51.644;8.494;2024-02-15T05:25:12;100478.00;;;14.75;100.00
16355;BME280;8287;51.644;8.494;2024-02-15T05:27:41;100470.78;;;14.76;100.00
16355;BME280;8287;51.644;8.494;2024-02-15T05:30:10;100471.34;;;14.81;100.00
16355;BME280;8287;51.644;8.494;2024-02-15T05:32:37;100466.78;;;14.82;100.00
16355;BME280;8287;51.644;8.494;2024-02-15T05:35:08;100463.16;;;14.66;100.00
16355;BME280;8287;51.644;8.494;2024-02-15T05:37:35;100471.28;;;14.69;100.00
16355;BME280;8287;51.644;8.494;2024-02-15T05:40:02;100453.97;;;14.63;100.00
16355;BME280;8287;51.644;8.494;2024-02-15T05:42:29;100466.69;;;14.58;100.00
16355;BME280;8287;51.644;8.494;2024-02-15T05:45:26;100465.59;;;14.59;100.00
16355;BME280;8287;51.644;8.494;2024-02-15T05:47:55;100466.75;;;14.70;100.00
16355;BME280;8287;51.644;8.494;2024-02-15T05:50:23;100467.19;;;14.72;100.00
16355;BME280;8287;51.644;8.494;2024-02-15T05:52:49;100463.56;;;14.76;100.00
16355;BME280;8287;51.644;8.494;2024-02-15T05:55:18;100462.19;;;14.70;100.00
16355;BME280;8287;51.644;8.494;2024-02-15T05:57:45;100457.19;;;14.69;100.00
16355;BME280;8287;51.644;8.494;2024-02-15T06:00:13;100445.84;;;14.72;100.00
16355;BME280;8287;51.644;8.494;2024-02-15T06:02:40;100454.84;;;14.67;100.00
16355;BME280;8287;51.644;8.494;2024-02-15T06:05:07;100447.28;;;14.69;100.00
16355;BME280;8287;51.644;8.494;2024-02-15T06:07:36;100453.13;;;14.83;100.00
16355;BME280;8287;51.644;8.494;2024-02-15T06:10:03;100451.56;;;14.82;100.00
16355;BME280;8287;51.644;8.494;2024-02-15T06:12:33;100453.66;;;14.77;100.00
16355;BME280;8287;51.644;8.494;2024-02-15T06:14:59;100445.66;;;14.77;100.00
16355;BME280;8287;51.644;8.494;2024-02-15T06:17:26;100447.41;;;14.73;100.00
16355;BME280;8287;51.644;8.494;2024-02-15T06:19:52;100444.44;;;14.74;100.00
16355;BME280;8287;51.644;8.494;2024-02-15T06:22:19;100434.88;;;14.73;100.00
16355;BME280;8287;51.644;8.494;2024-02-15T06:24:47;100436.50;;;14.66;100.00
16355;BME280;8287;51.644;8.494;2024-02-15T06:27:14;100431.69;;;14.59;100.00
16355;BME280;8287;51.644;8.494;2024-02-15T06:29:41;100431.03;;;14.62;100.00
16355;BME280;8287;51.644;8.494;2024-02-15T06:32:36;100439.16;;;14.66;100.00
16355;BME280;8287;51.644;8.494;2024-02-15T06:35:20;100438.66;;;14.72;100.00
16355;BME280;8287;51.644;8.494;2024-02-15T06:38:13;100438.34;;;14.53;100.00
16355;BME280;8287;51.644;8.494;2024-02-15T06:40:58;100424.94;;;14.62;100.00
16355;BME280;8287;51.644;8.494;2024-02-15T06:43:25;100445.28;;;14.66;100.00
16355;BME280;8287;51.644;8.494;2024-02-15T06:45:52;100442.53;;;14.75;100.00
16355;BME280;8287;51.644;8.494;2024-02-15T06:48:18;100447.22;;;14.78;100.00
16355;BME280;8287;51.644;8.494;2024-02-15T06:50:47;100436.25;;;14.79;100.00
16355;BME280;8287;51.644;8.494;2024-02-15T06:53:14;100442.09;;;14.73;100.00
16355;BME280;8287;51.644;8.494;2024-02-15T06:55:41;100439.47;;;14.85;100.00
16355;BME280;8287;51.644;8.494;2024-02-15T06:58:09;100445.69;;;14.89;100.00
16355;BME280;8287;51.644;8.494;2024-02-15T07:00:38;100442.66;;;14.78;100.00
16355;BME280;8287;51.644;8.494;2024-02-15T07:03:05;100439.66;;;14.80;100.00
16355;BME280;8287;51.644;8.494;2024-02-15T07:05:33;100436.25;;;14.79;100.00
16355;BME280;8287;51.644;8.494;2024-02-15T07:07:59;100429.94;;;14.96;100.00
16355;BME280;8287;51.644;8.494;2024-02-15T07:10:26;100428.50;;;14.98;100.00
16355;BME280;8287;51.644;8.494;2024-02-15T07:12:52;100422.13;;;14.91;100.00
16355;BME280;8287;51.644;8.494;2024-02-15T07:15:20;100434.34;;;14.92;100.00
16355;BME280;8287;51.644;8.494;2024-02-15T07:17:47;100427.69;;;14.86;100.00
16355;BME280;8287;51.644;8.494;2024-02-15T07:20:13;100429.94;;;14.96;100.00
16355;BME280;8287;51.644;8.494;2024-02-15T07:22:42;100439.63;;;15.00;100.00
16355;BME280;8287;51.644;8.494;2024-02-15T07:25:10;100439.50;;;14.97;100.00
16355;BME280;8287;51.644;8.494;2024-02-15T07:27:37;100438.81;;;14.88;100.00
16355;BME280;8287;51.644;8.494;2024-02-15T07:30:04;100442.59;;;14.87;100.00
16355;BME280;8287;51.644;8.494;2024-02-15T07:32:35;100446.53;;;14.69;100.00
16355;BME280;8287;51.644;8.494;2024-02-15T07:35:02;100449.03;;;14.86;100.00
16355;BME280;8287;51.644;8.494;2024-02-15T07:37:33;100455.06;;;14.95;100.00
16355;BME280;8287;51.644;8.494;2024-02-15T07:39:59;100451.19;;;15.04;100.00
16355;BME280;8287;51.644;8.494;2024-02-15T07:42:28;100452.97;;;15.00;100.00
16355;BME280;8287;51.644;8.494;2024-02-15T07:44:55;100444.22;;;15.12;100.00
16355;BME280;8287;51.644;8.494;2024-02-15T07:47:22;100450.66;;;15.23;100.00
16355;BME280;8287;51.644;8.494;2024-02-15T07:49:51;100440.09;;;15.26;100.00
16355;BME280;8287;51.644;8.494;2024-02-15T07:52:17;100452.59;;;15.34;100.00
16355;BME280;8287;51.644;8.494;2024-02-15T07:54:44;100445.50;;;15.38;100.00
16355;BME280;8287;51.644;8.494;2024-02-15T07:57:11;100454.53;;;15.34;100.00
16355;BME280;8287;51.644;8.494;2024-02-15T07:59:39;100454.56;;;15.25;100.00
16355;BME280;8287;51.644;8.494;2024-02-15T08:02:05;100456.13;;;15.26;100.00
16355;BME280;8287;51.644;8.494;2024-02-15T08:04:32;100455.00;;;15.27;100.00
16355;BME280;8287;51.644;8.494;2024-02-15T08:07:06;100464.19;;;15.38;100.00
16355;BME280;8287;51.644;8.494;2024-02-15T08:09:36;100462.91;;;15.24;100.00
16355;BME280;8287;51.644;8.494;2024-02-15T08:12:03;100462.56;;;15.13;100.00
16355;BME280;8287;51.644;8.494;2024-02-15T08:14:29;100464.38;;;15.21;100.00
16355;BME280;8287;51.644;8.494;2024-02-15T08:16:56;100456.88;;;15.15;100.00
16355;BME280;8287;51.644;8.494;2024-02-15T08:19:23;100448.34;;;15.21;100.00
16355;BME280;8287;51.644;8.494;2024-02-15T08:21:50;100453.78;;;15.25;100.00
16355;BME280;8287;51.644;8.494;2024-02-15T08:24:18;100442.09;;;15.29;100.00
16355;BME280;8287;51.644;8.494;2024-02-15T08:26:45;100446.31;;;15.18;100.00
16355;BME280;8287;51.644;8.494;2024-02-15T08:29:12;100437.56;;;15.18;100.00
16355;BME280;8287;51.644;8.494;2024-02-15T08:31:40;100442.97;;;15.09;100.00
16355;BME280;8287;51.644;8.494;2024-02-15T08:34:07;100448.00;;;15.11;100.00
16355;BME280;8287;51.644;8.494;2024-02-15T08:36:36;100432.09;;;15.14;100.00
16355;BME280;8287;51.644;8.494;2024-02-15T08:39:05;100434.66;;;15.11;100.00
16355;BME280;8287;51.644;8.494;2024-02-15T08:41:34;100426.28;;;15.00;100.00
16355;BME280;8287;51.644;8.494;2024-02-15T08:44:01;100424.41;;;15.13;100.00
16355;BME280;8287;51.644;8.494;2024-02-15T08:46:31;100406.72;;;15.08;100.00
16355;BME280;8287;51.644;8.494;2024-02-15T08:48:57;100407.03;;;14.95;100.00
16355;BME280;8287;51.644;8.494;2024-02-15T08:51:26;100401.59;;;15.03;100.00
16355;BME280;8287;51.644;8.494;2024-02-15T08:53:52;100397.22;;;14.87;100.00
16355;BME280;8287;51.644;8.494;2024-02-15T08:56:19;100385.31;;;14.84;100.00
16355;BME280;8287;51.644;8.494;2024-02-15T08:58:46;100386.50;;;14.75;100.00
16355;BME280;8287;51.644;8.494;2024-02-15T09:01:13;100390.09;;;14.91;100.00
16355;BME280;8287;51.644;8.494;2024-02-15T09:03:40;100399.09;;;14.86;100.00
16355;BME280;8287;51.644;8.494;2024-02-15T09:06:08;100403.44;;;14.79;100.00
16355;BME280;8287;51.644;8.494;2024-02-15T09:08:36;100412.03;;;14.96;100.00
16355;BME280;8287;51.644;8.494;2024-02-15T09:11:03;100412.94;;;15.00;100.00
16355;BME280;8287;51.644;8.494;2024-02-15T09:13:30;100418.28;;;15.00;100.00
16355;BME280;8287;51.644;8.494;2024-02-15T09:15:59;100428.06;;;15.08;100.00
16355;BME280;8287;51.644;8.494;2024-02-15T09:18:25;100418.06;;;15.05;100.00
16355;BME280;8287;51.644;8.494;2024-02-15T09:20:52;100421.06;;;15.16;100.00
16355;BME280;8287;51.644;8.494;2024-02-15T09:23:20;100428.50;;;15.10;100.00
16355;BME280;8287;51.644;8.494;2024-02-15T09:25:48;100418.47;;;14.95;100.00
16355;BME280;8287;51.644;8.494;2024-02-15T09:28:17;100426.75;;;15.14;100.00
16355;BME280;8287;51.644;8.494;2024-02-15T09:30:47;100426.63;;;15.11;100.00
16355;BME280;8287;51.644;8.494;2024-02-15T09:33:15;100428.06;;;15.08;100.00
16355;BME280;8287;51.644;8.494;2024-02-15T09:35:42;100431.41;;;15.17;100.00
16355;BME280;8287;51.644;8.494;2024-02-15T09:38:08;100424.59;;;15.08;100.00
16355;BME280;8287;51.644;8.494;2024-02-15T09:40:35;100422.66;;;15.29;100.00
16355;BME280;8287;51.644;8.494;2024-02-15T09:43:01;100412.75;;;15.29;100.00
16355;BME280;8287;51.644;8.494;2024-02-15T09:45:28;100417.31;;;15.29;100.00
16355;BME280;8287;51.644;8.494;2024-02-15T09:47:58;100414.31;;;15.30;100.00
16355;BME280;8287;51.644;8.494;2024-02-15T09:50:31;100415.13;;;15.31;100.00
16355;BME280;8287;51.644;8.494;2024-02-15T09:53:00;100412.25;;;15.36;100.00
16355;BME280;8287;51.644;8.494;2024-02-15T09:55:28;100417.81;;;15.43;100.00
16355;BME280;8287;51.644;8.494;2024-02-15T09:57:55;100419.00;;;15.45;100.00
16355;BME280;8287;51.644;8.494;2024-02-15T10:00:23;100418.34;;;15.36;100.00
16355;BME280;8287;51.644;8.494;2024-02-15T10:02:51;100418.00;;;15.26;100.00
16355;BME280;8287;51.644;8.494;2024-02-15T10:05:20;100426.81;;;15.38;100.00
16355;BME280;8287;51.644;8.494;2024-02-15T10:07:49;100420.69;;;15.38;100.00
16355;BME280;8287;51.644;8.494;2024-02-15T10:10:17;100428.66;;;15.26;100.00
16355;BME280;8287;51.644;8.494;2024-02-15T10:12:45;100439.06;;;15.39;100.00
16355;BME280;8287;51.644;8.494;2024-02-15T10:15:27;100430.25;;;15.39;100.00
16355;BME280;8287;51.644;8.494;2024-02-15T10:17:54;100436.25;;;15.48;100.00
16355;BME280;8287;51.644;8.494;2024-02-15T10:20:21;100436.38;;;15.51;100.00
16355;BME280;8287;51.644;8.494;2024-02-15T10:22:52;100432.28;;;15.54;100.00
16355;BME280;8287;51.644;8.494;2024-02-15T10:25:20;100435.94;;;15.49;100.00
16355;BME280;8287;51.644;8.494;2024-02-15T10:27:47;100440.50;;;15.61;100.00
16355;BME280;8287;51.644;8.494;2024-02-15T10:30:15;100450.63;;;15.55;100.00
16355;BME280;8287;51.644;8.494;2024-02-15T10:32:43;100444.84;;;15.65;100.00
16355;BME280;8287;51.644;8.494;2024-02-15T10:35:09;100449.06;;;15.66;100.00
16355;BME280;8287;51.644;8.494;2024-02-15T10:37:40;100449.97;;;15.58;100.00
16355;BME280;8287;51.644;8.494;2024-02-15T10:40:09;100448.72;;;15.56;100.00
16355;BME280;8287;51.644;8.494;2024-02-15T10:42:40;100450.41;;;15.60;100.00
16355;BME280;8287;51.644;8.494;2024-02-15T10:45:08;100440.41;;;15.57;100.00
16355;BME280;8287;51.644;8.494;2024-02-15T10:47:37;100448.97;;;15.63;100.00
16355;BME280;8287;51.644;8.494;2024-02-15T10:50:06;100450.63;;;15.55;100.00
16355;BME280;8287;51.644;8.494;2024-02-15T10:52:37;100442.16;;;15.53;100.00
16355;BME280;8287;51.644;8.494;2024-02-15T10:55:09;100434.72;;;15.47;100.00
16355;BME280;8287;51.644;8.494;2024-02-15T10:57:41;100434.81;;;15.50;100.00
16355;BME280;8287;51.644;8.494;2024-02-15T11:00:12;100441.03;;;15.54;100.00
16355;BME280;8287;51.644;8.494;2024-02-15T11:02:57;100435.50;;;15.47;100.00
16355;BME280;8287;51.644;8.494;2024-02-15T11:05:29;100421.47;;;15.38;100.00
16355;BME280;8287;51.644;8.494;2024-02-15T11:07:58;100428.25;;;15.48;100.00
16355;BME280;8287;51.644;8.494;2024-02-15T11:10:28;100426.81;;;15.50;100.00
16355;BME280;8287;51.644;8.494;2024-02-15T11:12:55;100430.03;;;15.56;100.00
16355;BME280;8287;51.644;8.494;2024-02-15T11:15:43;100428.16;;;15.56;100.00
16355;BME280;8287;51.644;8.494;2024-02-15T11:18:44;100432.72;;;15.56;100.00
16355;BME280;8287;51.644;8.494;2024-02-15T11:21:11;100424.81;;;15.59;100.00
16355;BME280;8287;51.644;8.494;2024-02-15T11:23:38;100425.00;;;15.54;100.00
16355;BME280;8287;51.644;8.494;2024-02-15T11:26:08;100428.69;;;15.50;100.00
16355;BME280;8287;51.644;8.494;2024-02-15T11:28:43;100435.59;;;15.63;100.00
16355;BME280;8287;51.644;8.494;2024-02-15T11:34:41;100419.13;;;15.49;100.00
16355;BME280;8287;51.644;8.494;2024-02-15T11:37:09;100410.78;;;15.38;100.00
16355;BME280;8287;51.644;8.494;2024-02-15T11:39:42;100406.34;;;15.42;100.00
16355;BME280;8287;51.644;8.494;2024-02-15T11:42:27;100412.78;;;15.53;100.00
16355;BME280;8287;51.644;8.494;2024-02-15T11:45:02;100412.66;;;15.50;100.00
16355;BME280;8287;51.644;8.494;2024-02-15T11:47:32;100409.44;;;15.68;100.00
16355;BME280;8287;51.644;8.494;2024-02-15T11:49:59;100411.66;;;15.78;100.00
16355;BME280;8287;51.644;8.494;2024-02-15T11:52:26;100418.47;;;15.64;100.00
16355;BME280;8287;51.644;8.494;2024-02-15T11:54:52;100402.97;;;15.69;100.00
16355;BME280;8287;51.644;8.494;2024-02-15T11:57:19;100403.22;;;15.64;100.00
16355;BME280;8287;51.644;8.494;2024-02-15T12:00:03;100397.22;;;15.55;100.00
16355;BME280;8287;51.644;8.494;2024-02-15T12:02:59;100403.41;;;15.23;100.00
16355;BME280;8287;51.644;8.494;2024-02-15T12:05:43;100391.63;;;15.36;100.00
16355;BME280;8287;51.644;8.494;2024-02-15T12:08:27;100388.66;;;15.38;100.00
16355;BME280;8287;51.644;8.494;2024-02-15T12:11:13;100383.88;;;15.55;100.00
16355;BME280;8287;51.644;8.494;2024-02-15T12:13:58;100386.97;;;15.33;100.00
16355;BME280;8287;51.644;8.494;2024-02-15T12:16:43;100381.59;;;15.09;100.00
16355;BME280;8287;51.644;8.494;2024-02-15T12:19:27;100381.16;;;15.19;100.00
16355;BME280;8287;51.644;8.494;2024-02-15T12:21:54;100370.75;;;15.38;100.00
16355;BME280;8287;51.644;8.494;2024-02-15T12:24:23;100370.16;;;15.21;100.00
16355;BME280;8287;51.644;8.494;2024-02-15T12:26:52;100361.84;;;15.34;100.00
16355;BME280;8287;51.644;8.494;2024-02-15T12:29:25;100363.94;;;15.41;100.00
16355;BME280;8287;51.644;8.494;2024-02-15T12:31:53;100356.28;;;15.39;100.00
16355;BME280;8287;51.644;8.494;2024-02-15T12:34:20;100354.72;;;15.50;100.00
16355;BME280;8287;51.644;8.494;2024-02-15T12:36:47;100347.13;;;15.64;100.00
16355;BME280;8287;51.644;8.494;2024-02-15T12:39:14;100342.88;;;15.75;100.00
16355;BME280;8287;51.644;8.494;2024-02-15T12:41:50;100342.13;;;15.63;100.00
16355;BME280;8287;51.644;8.494;2024-02-15T12:44:17;100341.06;;;15.79;100.00
16355;BME280;8287;51.644;8.494;2024-02-15T12:46:46;100337.25;;;15.92;100.00
16355;BME280;8287;51.644;8.494;2024-02-15T12:49:28;100329.94;;;15.89;100.00
16355;BME280;8287;51.644;8.494;2024-02-15T12:55:06;100325.56;;;15.97;100.00
16355;BME280;8287;51.644;8.494;2024-02-15T12:57:34;100318.44;;;15.89;100.00
16355;BME280;8287;51.644;8.494;2024-02-15T13:00:01;100314.69;;;16.17;100.00
16355;BME280;8287;51.644;8.494;2024-02-15T13:02:36;100309.53;;;16.24;100.00
16355;BME280;8287;51.644;8.494;2024-02-15T13:05:04;100308.94;;;16.03;100.00